createdAt,value
2018-02-25T00:00:29.792Z,99.90
2018-02-25T00:02:57.310Z,99.90
2018-02-25T00:05:24.910Z,99.90
2018-02-25T00:07:52.483Z,99.90
2018-02-25T00:10:20.043Z,99.90
2018-02-25T00:12:47.614Z,99.90
2018-02-25T00:15:15.134Z,99.90
2018-02-25T00:17:43.449Z,99.90
2018-02-25T00:20:11.018Z,99.90
2018-02-25T00:22:38.538Z,99.90
2018-02-25T00:25:06.810Z,99.90
2018-02-25T00:27:35.124Z,99.90
2018-02-25T00:30:02.641Z,99.90
2018-02-25T00:32:30.156Z,99.90
2018-02-25T00:34:57.704Z,99.90
2018-02-25T00:37:25.207Z,99.90
2018-02-25T00:39:52.826Z,99.90
2018-02-25T00:42:20.328Z,99.90
2018-02-25T00:44:47.930Z,99.90
2018-02-25T00:47:15.521Z,99.90
2018-02-25T00:49:43.004Z,99.90
2018-02-25T00:52:10.508Z,99.90
2018-02-25T00:54:38.024Z,99.90
2018-02-25T00:57:05.534Z,99.90
2018-02-25T00:59:33.089Z,99.90
2018-02-25T01:02:00.612Z,99.90
2018-02-25T01:04:28.217Z,99.90
2018-02-25T01:06:55.724Z,99.90
2018-02-25T01:09:23.242Z,99.90
2018-02-25T01:11:50.748Z,99.90
2018-02-25T01:14:18.343Z,99.90
2018-02-25T01:16:45.904Z,99.90
2018-02-25T01:19:13.483Z,99.90
2018-02-25T01:21:41.045Z,99.90
2018-02-25T01:24:08.638Z,99.90
2018-02-25T01:26:37.131Z,99.90
2018-02-25T01:29:04.728Z,99.90
2018-02-25T01:31:33.022Z,99.90
2018-02-25T01:34:00.538Z,99.90
2018-02-25T01:36:28.051Z,99.90
2018-02-25T01:38:55.560Z,99.90
2018-02-25T01:41:23.159Z,99.90
2018-02-25T01:43:50.667Z,99.90
2018-02-25T01:46:18.993Z,99.90
2018-02-25T01:48:46.499Z,99.90
2018-02-25T01:51:14.004Z,99.90
2018-02-25T01:53:41.578Z,99.90
2018-02-25T01:56:09.113Z,99.90
2018-02-25T01:58:37.384Z,99.90
2018-02-25T02:01:05.660Z,99.90
2018-02-25T02:03:33.935Z,99.90
2018-02-25T02:06:02.225Z,99.90
2018-02-25T02:08:30.510Z,99.90
2018-02-25T02:10:58.900Z,99.90
2018-02-25T02:13:26.403Z,99.90
2018-02-25T02:15:53.923Z,99.90
2018-02-25T02:18:21.429Z,99.90
2018-02-25T02:20:48.947Z,99.90
2018-02-25T02:23:16.446Z,99.90
2018-02-25T02:25:44.055Z,99.90
2018-02-25T02:28:11.614Z,99.90
2018-02-25T02:30:39.130Z,99.90
2018-02-25T02:33:06.631Z,99.90
2018-02-25T02:35:34.199Z,99.90
2018-02-25T02:38:01.710Z,99.90
2018-02-25T02:40:29.309Z,99.90
2018-02-25T02:42:57.585Z,99.90
2018-02-25T02:45:25.871Z,99.90
2018-02-25T02:47:53.421Z,99.90
2018-02-25T02:50:21.684Z,99.90
2018-02-25T02:52:49.968Z,99.90
2018-02-25T02:55:18.242Z,99.90
2018-02-25T02:57:46.531Z,99.90
2018-02-25T03:00:14.935Z,99.90
2018-02-25T03:02:42.451Z,99.90
2018-02-25T03:05:10.034Z,99.90
2018-02-25T03:07:37.557Z,99.90
2018-02-25T03:10:05.150Z,99.90
2018-02-25T03:12:33.551Z,99.90
2018-02-25T03:15:01.059Z,99.90
2018-02-25T03:17:28.648Z,99.90
2018-02-25T03:19:56.927Z,99.90
2018-02-25T03:22:25.331Z,99.90
2018-02-25T03:24:52.831Z,99.90
2018-02-25T03:27:20.342Z,99.90
2018-02-25T03:29:47.862Z,99.90
2018-02-25T03:32:15.457Z,99.90
2018-02-25T03:34:42.970Z,99.90
2018-02-25T03:37:10.487Z,99.90
2018-02-25T03:39:38.038Z,99.90
2018-02-25T03:42:05.543Z,99.90
2018-02-25T03:44:33.061Z,99.90
2018-02-25T03:47:00.610Z,99.90
2018-02-25T03:49:28.332Z,99.90
2018-02-25T03:51:55.874Z,99.90
2018-02-25T03:54:23.371Z,99.90
2018-02-25T03:56:50.953Z,99.90
2018-02-25T03:59:19.228Z,99.90
2018-02-25T04:01:46.791Z,99.90
2018-02-25T04:04:14.320Z,99.90
2018-02-25T04:06:41.824Z,99.90
2018-02-25T04:09:09.327Z,99.90
2018-02-25T04:11:36.925Z,99.90
2018-02-25T04:14:05.210Z,99.90
2018-02-25T04:16:32.719Z,99.90
2018-02-25T04:19:00.331Z,99.90
2018-02-25T04:21:27.836Z,99.90
2018-02-25T04:23:55.355Z,99.90
2018-02-25T04:26:22.867Z,99.90
2018-02-25T04:28:50.466Z,99.90
2018-02-25T04:31:18.735Z,99.90
2018-02-25T04:33:47.026Z,99.90
2018-02-25T04:36:14.589Z,99.90
2018-02-25T04:38:42.096Z,99.90
2018-02-25T04:41:09.734Z,99.90
2018-02-25T04:43:37.272Z,99.90
2018-02-25T04:46:04.783Z,99.90
2018-02-25T04:48:32.299Z,99.90
2018-02-25T04:50:59.818Z,99.90
2018-02-25T04:53:27.335Z,99.90
2018-02-25T04:55:54.846Z,99.90
2018-02-25T04:58:23.138Z,99.90
2018-02-25T05:00:51.416Z,99.90
2018-02-25T05:03:18.925Z,99.90
2018-02-25T05:05:46.443Z,99.90
2018-02-25T05:08:13.953Z,99.90
2018-02-25T05:10:41.479Z,99.90
2018-02-25T05:13:08.994Z,99.90
2018-02-25T05:15:37.263Z,99.90
2018-02-25T05:18:05.693Z,99.90
2018-02-25T05:20:33.207Z,99.90
2018-02-25T05:23:00.719Z,99.90
2018-02-25T05:25:28.223Z,99.90
2018-02-25T05:27:55.730Z,99.90
2018-02-25T05:30:23.243Z,99.90
2018-02-25T05:32:50.837Z,99.90
2018-02-25T05:35:18.352Z,99.90
2018-02-25T05:37:45.865Z,99.90
2018-02-25T05:40:13.429Z,99.90
2018-02-25T05:42:40.931Z,99.90
2018-02-25T05:45:08.532Z,99.90
2018-02-25T05:47:36.109Z,99.90
2018-02-25T05:50:03.620Z,99.90
2018-02-25T05:52:31.127Z,99.90
2018-02-25T05:54:58.660Z,99.90
2018-02-25T05:57:26.923Z,99.90
2018-02-25T05:59:55.223Z,99.90
2018-02-25T06:02:22.746Z,99.90
2018-02-25T06:04:50.343Z,99.90
2018-02-25T06:07:17.854Z,99.90
2018-02-25T06:09:45.462Z,99.90
2018-02-25T06:12:12.965Z,99.90
2018-02-25T06:14:40.487Z,99.90
2018-02-25T06:17:08.052Z,99.90
2018-02-25T06:19:35.567Z,99.90
2018-02-25T06:22:03.083Z,99.90
2018-02-25T06:24:30.587Z,99.90
2018-02-25T06:26:58.100Z,99.90
2018-02-25T06:29:25.620Z,99.90
2018-02-25T06:31:53.898Z,99.90
2018-02-25T06:34:22.214Z,99.90
2018-02-25T06:36:49.760Z,99.90
2018-02-25T06:39:17.261Z,99.90
2018-02-25T06:41:44.754Z,99.90
2018-02-25T06:44:13.042Z,99.90
2018-02-25T06:46:41.448Z,99.90
2018-02-25T06:49:08.995Z,99.90
2018-02-25T06:51:36.569Z,99.90
2018-02-25T06:54:04.122Z,99.90
2018-02-25T06:56:31.644Z,99.90
2018-02-25T06:58:59.253Z,99.90
2018-02-25T07:01:26.984Z,99.90
2018-02-25T07:03:55.260Z,99.90
2018-02-25T07:06:23.563Z,99.90
2018-02-25T07:08:51.226Z,99.90
2018-02-25T07:11:18.746Z,99.90
2018-02-25T07:13:46.255Z,99.90
2018-02-25T07:16:13.764Z,99.90
2018-02-25T07:18:41.352Z,99.90
2018-02-25T07:21:09.066Z,99.90
2018-02-25T07:23:36.609Z,99.90
2018-02-25T07:26:04.128Z,99.90
2018-02-25T07:28:32.395Z,99.90
2018-02-25T07:31:00.696Z,99.90
2018-02-25T07:33:28.260Z,99.90
2018-02-25T07:35:55.762Z,99.90
2018-02-25T07:38:23.578Z,99.90
2018-02-25T07:40:51.108Z,99.90
2018-02-25T07:43:18.712Z,99.90
2018-02-25T07:45:46.221Z,99.90
2018-02-25T07:48:13.743Z,99.90
2018-02-25T07:50:41.265Z,99.90
2018-02-25T07:53:09.667Z,99.90
2018-02-25T07:55:37.182Z,99.90
2018-02-25T07:58:04.772Z,99.90
2018-02-25T08:00:33.056Z,99.90
2018-02-25T08:03:01.572Z,99.90
2018-02-25T08:05:29.129Z,99.90
2018-02-25T08:07:56.661Z,99.90
2018-02-25T08:10:24.221Z,99.90
2018-02-25T08:12:51.804Z,99.90
2018-02-25T08:15:19.324Z,99.90
2018-02-25T08:17:47.634Z,99.90
2018-02-25T08:20:15.144Z,99.90
2018-02-25T08:22:42.651Z,99.90
2018-02-25T08:25:10.212Z,99.90
2018-02-25T08:27:37.761Z,99.90
2018-02-25T08:30:05.295Z,99.90
2018-02-25T08:32:33.570Z,99.90
2018-02-25T08:35:01.882Z,99.90
2018-02-25T08:37:29.412Z,99.90
2018-02-25T08:39:57.726Z,99.90
2018-02-25T08:42:25.390Z,99.90
2018-02-25T08:44:52.952Z,92.20
2018-02-25T08:47:20.475Z,87.30
2018-02-25T08:49:48.992Z,86.20
2018-02-25T08:52:17.679Z,73.10
2018-02-25T09:07:50.870Z,72.50
2018-02-25T09:10:18.596Z,65.80
2018-02-25T09:12:46.871Z,66.70
2018-02-25T09:15:15.490Z,65.90
2018-02-25T09:17:43.665Z,65.20
2018-02-25T09:20:11.328Z,65.10
2018-02-25T09:22:38.877Z,65.20
2018-02-25T09:25:06.390Z,62.50
2018-02-25T09:27:33.986Z,63.70
2018-02-25T09:30:01.571Z,60.00
2018-02-25T09:32:29.098Z,63.60
2018-02-25T09:34:57.508Z,66.80
2018-02-25T09:37:25.008Z,67.20
2018-02-25T09:39:52.602Z,65.60
2018-02-25T09:42:20.890Z,65.80
2018-02-25T09:44:48.427Z,65.20
2018-02-25T09:47:16.699Z,76.70
2018-02-25T09:49:44.228Z,76.70
2018-02-25T09:52:11.735Z,64.90
2018-02-25T09:54:40.032Z,75.60
2018-02-25T09:57:07.551Z,75.70
2018-02-25T09:59:35.046Z,79.50
2018-02-25T10:02:02.612Z,85.10
2018-02-25T10:04:30.169Z,89.20
2018-02-25T10:06:58.399Z,86.50
2018-02-25T10:09:25.936Z,82.40
2018-02-25T10:11:53.466Z,90.40
2018-02-25T10:14:21.083Z,88.90
2018-02-25T10:16:48.547Z,83.30
2018-02-25T10:19:16.141Z,90.70
2018-02-25T10:21:43.653Z,91.10
2018-02-25T10:24:11.883Z,91.70
2018-02-25T10:26:39.458Z,90.00
2018-02-25T10:29:06.991Z,93.70
2018-02-25T10:31:36.629Z,92.00
2018-02-25T10:34:04.173Z,92.60
2018-02-25T10:36:31.690Z,91.60
2018-02-25T10:38:59.397Z,92.60
2018-02-25T10:41:26.920Z,90.60
2018-02-25T10:43:54.562Z,90.70
2018-02-25T10:46:22.298Z,93.60
2018-02-25T10:48:49.814Z,93.00
2018-02-25T10:51:18.580Z,96.00
2018-02-25T10:53:46.310Z,96.10
2018-02-25T10:56:15.453Z,95.30
2018-02-25T10:58:43.680Z,95.20
2018-02-25T11:01:11.424Z,98.20
2018-02-25T11:03:39.317Z,97.70
2018-02-25T11:06:06.991Z,95.80
2018-02-25T11:08:34.787Z,95.00
2018-02-25T11:11:02.959Z,95.60
2018-02-25T11:13:31.444Z,96.00
2018-02-25T11:15:59.573Z,96.30
2018-02-25T11:18:27.337Z,99.90
2018-02-25T11:20:55.875Z,98.00
2018-02-25T11:23:23.375Z,97.80
2018-02-25T11:25:51.386Z,97.50
2018-02-25T11:28:19.101Z,99.90
2018-02-25T11:30:46.691Z,99.90
2018-02-25T11:33:14.648Z,97.20
2018-02-25T11:35:42.755Z,99.90
2018-02-25T11:38:16.133Z,99.90
2018-02-25T11:40:45.075Z,94.60
2018-02-25T11:43:13.083Z,94.30
2018-02-25T11:45:45.096Z,97.70
2018-02-25T11:48:19.060Z,97.70
2018-02-25T11:50:55.630Z,94.50
2018-02-25T11:53:26.904Z,96.70
2018-02-25T11:55:55.341Z,99.00
2018-02-25T11:58:23.069Z,94.60
2018-02-25T12:00:50.690Z,99.90
2018-02-25T12:03:19.702Z,96.90
2018-02-25T12:05:47.753Z,97.00
2018-02-25T12:08:16.095Z,99.30
2018-02-25T12:10:44.379Z,99.90
2018-02-25T12:13:11.904Z,99.90
2018-02-25T12:15:39.516Z,99.90
2018-02-25T12:18:07.060Z,99.40
2018-02-25T12:20:34.652Z,99.90
2018-02-25T12:23:02.901Z,97.80
2018-02-25T12:25:30.485Z,98.20
2018-02-25T12:27:58.153Z,99.90
2018-02-25T12:30:26.018Z,99.30
2018-02-25T12:32:53.528Z,98.80
2018-02-25T12:35:21.053Z,97.40
2018-02-25T12:37:48.555Z,98.30
2018-02-25T12:40:16.864Z,96.50
2018-02-25T12:42:44.447Z,96.50
2018-02-25T12:45:11.980Z,99.90
2018-02-25T12:47:39.563Z,99.90
2018-02-25T12:50:07.092Z,99.00
2018-02-25T12:52:35.378Z,99.90
2018-02-25T12:55:02.940Z,99.90
2018-02-25T12:57:30.507Z,99.90
2018-02-25T12:59:58.039Z,99.90
2018-02-25T13:02:26.346Z,99.90
2018-02-25T13:04:53.851Z,99.90
2018-02-25T13:07:21.715Z,99.90
2018-02-25T13:09:49.334Z,99.90
2018-02-25T13:12:16.888Z,99.90
2018-02-25T13:14:44.447Z,99.90
2018-02-25T13:17:11.954Z,99.90
2018-02-25T13:19:39.572Z,99.90
2018-02-25T13:22:07.145Z,99.90
2018-02-25T13:24:34.667Z,99.90
2018-02-25T13:27:02.944Z,99.90
2018-02-25T13:29:32.209Z,99.90
2018-02-25T13:31:59.759Z,99.90
2018-02-25T13:34:27.297Z,99.90
2018-02-25T13:36:54.845Z,99.90
2018-02-25T13:39:22.385Z,99.90
2018-02-25T13:41:50.685Z,99.90
2018-02-25T13:44:18.203Z,99.90
2018-02-25T13:46:45.723Z,99.90
2018-02-25T13:49:13.229Z,99.90
2018-02-25T13:51:41.515Z,99.90
2018-02-25T13:54:09.794Z,99.90
2018-02-25T13:56:38.110Z,99.90
2018-02-25T13:59:05.658Z,99.90
2018-02-25T14:01:33.217Z,99.90
2018-02-25T14:04:00.796Z,99.90
2018-02-25T14:06:28.349Z,99.90
2018-02-25T14:08:55.916Z,99.90
2018-02-25T14:11:23.440Z,99.90
2018-02-25T14:13:51.728Z,99.90
2018-02-25T14:16:20.515Z,99.90
2018-02-25T14:18:48.788Z,99.90
2018-02-25T14:21:17.105Z,99.90
2018-02-25T14:23:44.633Z,99.90
2018-02-25T14:26:12.151Z,99.90
2018-02-25T14:28:39.658Z,99.90
2018-02-25T14:31:07.162Z,99.90
2018-02-25T14:33:34.703Z,99.90
2018-02-25T14:36:02.229Z,99.90
2018-02-25T14:38:29.765Z,99.90
2018-02-25T14:40:57.277Z,99.90
2018-02-25T14:43:24.787Z,99.90
2018-02-25T14:45:52.386Z,99.90
2018-02-25T14:48:19.956Z,99.90
2018-02-25T14:50:47.522Z,99.90
2018-02-25T14:53:15.031Z,99.90
2018-02-25T14:55:43.561Z,99.90
2018-02-25T14:58:11.223Z,99.90
2018-02-25T15:00:38.774Z,99.90
2018-02-25T15:03:06.300Z,99.90
2018-02-25T15:05:33.835Z,99.90
2018-02-25T15:08:01.471Z,99.90
2018-02-25T15:10:29.447Z,99.90
2018-02-25T15:12:57.407Z,99.90
2018-02-25T15:15:24.978Z,99.90
2018-02-25T15:17:52.483Z,99.90
2018-02-25T15:20:20.783Z,99.90
2018-02-25T15:22:48.315Z,99.90
2018-02-25T15:25:15.846Z,99.90
2018-02-25T15:27:43.476Z,99.90
2018-02-25T15:30:11.050Z,99.90
2018-02-25T15:32:39.339Z,99.90
2018-02-25T15:35:06.927Z,99.90
2018-02-25T15:37:34.572Z,99.90
2018-02-25T15:40:02.092Z,99.90
2018-02-25T15:42:30.085Z,99.90
2018-02-25T15:45:00.181Z,99.90
2018-02-25T15:47:28.067Z,99.90
2018-02-25T15:49:56.209Z,99.90
2018-02-25T15:52:26.964Z,99.90
2018-02-25T15:54:56.653Z,99.90
2018-02-25T15:57:24.767Z,99.90
2018-02-25T15:59:53.655Z,99.90
2018-02-25T16:02:22.338Z,99.90
2018-02-25T16:04:50.849Z,99.90
2018-02-25T16:07:19.996Z,99.90
2018-02-25T16:09:47.725Z,99.90
2018-02-25T16:12:15.470Z,99.90
2018-02-25T16:14:43.595Z,99.90
2018-02-25T16:17:11.183Z,99.90
2018-02-25T16:19:38.720Z,99.90
2018-02-25T16:22:07.009Z,99.90
2018-02-25T16:24:34.539Z,99.90
2018-02-25T16:27:02.888Z,99.90
2018-02-25T16:29:30.440Z,99.90
2018-02-25T16:31:58.186Z,99.90
2018-02-25T16:34:26.566Z,99.90
2018-02-25T16:36:54.106Z,99.90
2018-02-25T16:39:21.676Z,99.90
2018-02-25T16:41:49.237Z,99.90
2018-02-25T16:44:16.828Z,99.90
2018-02-25T16:46:44.553Z,99.90
2018-02-25T16:49:12.139Z,99.90
2018-02-25T16:51:39.713Z,99.90
2018-02-25T16:54:07.272Z,99.90
2018-02-25T16:56:34.918Z,99.90
2018-02-25T16:59:02.785Z,99.90
2018-02-25T17:01:30.321Z,99.90
2018-02-25T17:03:58.238Z,99.90
2018-02-25T17:06:26.239Z,99.90
2018-02-25T17:08:54.154Z,99.90
2018-02-25T17:11:22.642Z,99.90
2018-02-25T17:13:51.425Z,99.90
2018-02-25T17:16:19.089Z,99.90
2018-02-25T17:18:46.648Z,99.90
2018-02-25T17:21:14.174Z,99.90
2018-02-25T17:23:42.452Z,99.90
2018-02-25T17:26:10.748Z,99.90
2018-02-25T17:28:38.352Z,99.90
2018-02-25T17:31:06.090Z,99.90
2018-02-25T17:33:33.641Z,99.90
2018-02-25T17:36:01.151Z,99.90
2018-02-25T17:38:29.142Z,99.90
2018-02-25T17:40:58.020Z,99.90
2018-02-25T17:43:25.689Z,99.90
2018-02-25T17:45:53.208Z,99.90
2018-02-25T17:48:20.841Z,99.90
2018-02-25T17:50:48.352Z,99.90
2018-02-25T17:53:15.978Z,99.90
2018-02-25T17:55:43.539Z,99.90
2018-02-25T17:58:13.462Z,99.90
2018-02-25T18:00:43.158Z,99.90
2018-02-25T18:03:13.064Z,99.90
2018-02-25T18:05:43.725Z,99.90
2018-02-25T18:08:14.253Z,99.90
2018-02-25T18:10:47.352Z,99.90
2018-02-25T18:13:16.259Z,99.90
2018-02-25T18:15:45.378Z,99.90
2018-02-25T18:18:15.428Z,99.90
2018-02-25T18:20:43.105Z,99.90
2018-02-25T18:23:10.763Z,99.90
2018-02-25T18:25:38.642Z,99.90
2018-02-25T18:28:06.200Z,99.90
2018-02-25T18:30:34.687Z,99.90
2018-02-25T18:33:02.337Z,99.90
2018-02-25T18:35:30.010Z,99.90
2018-02-25T18:37:58.010Z,99.90
2018-02-25T18:40:28.148Z,99.90
2018-02-25T18:42:56.405Z,99.90
2018-02-25T18:45:24.465Z,99.90
2018-02-25T18:47:53.508Z,99.90
2018-02-25T18:50:21.679Z,99.90
2018-02-25T18:52:50.517Z,99.90
2018-02-25T18:55:19.509Z,99.90
2018-02-25T18:57:47.988Z,99.90
2018-02-25T19:00:15.736Z,99.90
2018-02-25T19:02:44.092Z,99.90
2018-02-25T19:05:12.623Z,99.90
2018-02-25T19:07:40.998Z,99.90
2018-02-25T19:10:09.027Z,99.90
2018-02-25T19:12:37.137Z,99.90
2018-02-25T19:15:05.206Z,99.90
2018-02-25T19:17:32.934Z,99.90
2018-02-25T19:20:01.418Z,99.90
2018-02-25T19:22:30.051Z,99.90
2018-02-25T19:24:57.638Z,99.90
2018-02-25T19:27:25.692Z,99.90
2018-02-25T19:29:53.438Z,99.90
2018-02-25T19:32:21.735Z,99.90
2018-02-25T19:34:49.708Z,99.90
2018-02-25T19:37:23.170Z,99.90
2018-02-25T19:39:56.289Z,99.90
2018-02-25T19:42:23.985Z,99.90
2018-02-25T19:44:52.119Z,99.90
2018-02-25T19:47:20.212Z,99.90
2018-02-25T19:49:48.499Z,99.90
2018-02-25T19:52:16.236Z,99.90
2018-02-25T19:54:44.184Z,99.90
2018-02-25T19:57:12.800Z,99.90
2018-02-25T19:59:41.160Z,99.90
2018-02-25T20:02:09.276Z,99.90
2018-02-25T20:04:38.079Z,99.90
2018-02-25T20:07:06.154Z,99.90
2018-02-25T20:09:34.817Z,99.90
2018-02-25T20:12:02.556Z,99.90
2018-02-25T20:14:30.440Z,99.90
2018-02-25T20:16:59.220Z,99.90
2018-02-25T20:19:27.003Z,99.90
2018-02-25T20:21:55.053Z,99.90
2018-02-25T20:24:22.781Z,99.90
2018-02-25T20:26:51.162Z,99.90
2018-02-25T20:29:19.461Z,99.90
2018-02-25T20:31:47.137Z,99.90
2018-02-25T20:34:14.930Z,99.90
2018-02-25T20:36:42.601Z,99.90
2018-02-25T20:39:10.387Z,99.90
2018-02-25T20:41:38.862Z,99.90
2018-02-25T20:44:06.514Z,99.90
2018-02-25T20:46:34.721Z,99.90
2018-02-25T20:49:03.239Z,99.90
2018-02-25T20:51:30.890Z,99.90
2018-02-25T20:53:58.424Z,99.90
2018-02-25T20:56:26.019Z,99.90
2018-02-25T20:58:53.727Z,99.90
2018-02-25T21:01:21.372Z,99.90
2018-02-25T21:03:49.498Z,99.90
2018-02-25T21:06:17.386Z,99.90
2018-02-25T21:08:45.192Z,99.90
2018-02-25T21:11:12.796Z,99.90
2018-02-25T21:13:40.478Z,99.90
2018-02-25T21:16:08.238Z,99.90
2018-02-25T21:18:36.020Z,99.90
2018-02-25T21:21:03.691Z,99.90
2018-02-25T21:23:31.315Z,99.90
2018-02-25T21:25:58.904Z,99.90
2018-02-25T21:28:26.656Z,99.90
2018-02-25T21:30:54.316Z,99.90
2018-02-25T21:33:21.977Z,99.90
2018-02-25T21:35:49.523Z,99.90
2018-02-25T21:38:17.305Z,99.90
2018-02-25T21:40:44.938Z,99.90
2018-02-25T21:43:13.259Z,99.90
2018-02-25T21:45:40.780Z,99.90
2018-02-25T21:48:09.177Z,99.90
2018-02-25T21:50:36.802Z,99.90
2018-02-25T21:53:04.504Z,99.90
2018-02-25T21:55:33.278Z,99.90
2018-02-25T21:58:07.553Z,99.90
2018-02-25T22:00:41.083Z,99.90
2018-02-25T22:03:15.176Z,99.90
2018-02-25T22:05:42.757Z,99.90
2018-02-25T22:08:10.439Z,99.90
2018-02-25T22:10:37.965Z,99.90
2018-02-25T22:13:05.678Z,99.90
2018-02-25T22:15:33.389Z,99.90
2018-02-25T22:18:01.253Z,99.90
2018-02-25T22:20:30.596Z,99.90
2018-02-25T22:22:58.686Z,99.90
2018-02-25T22:25:26.353Z,99.90
2018-02-25T22:27:53.962Z,99.90
2018-02-25T22:30:21.894Z,99.90
2018-02-25T22:32:49.946Z,99.90
2018-02-25T22:35:18.006Z,99.90
2018-02-25T22:37:45.893Z,99.90
2018-02-25T22:40:13.569Z,99.90
2018-02-25T22:42:41.529Z,99.90
2018-02-25T22:45:09.496Z,99.90
2018-02-25T22:47:37.118Z,99.90
2018-02-25T22:50:05.918Z,99.90
2018-02-25T22:52:34.755Z,99.90
2018-02-25T22:55:02.357Z,99.90
2018-02-25T22:57:31.089Z,99.90
2018-02-25T22:59:58.700Z,99.90
2018-02-25T23:02:26.622Z,99.90
2018-02-25T23:04:54.163Z,99.90
2018-02-25T23:07:21.794Z,99.90
2018-02-25T23:09:50.117Z,99.90
2018-02-25T23:12:17.654Z,99.90
2018-02-25T23:14:45.964Z,99.90
2018-02-25T23:17:13.485Z,99.90
2018-02-25T23:19:41.775Z,99.90
2018-02-25T23:22:09.288Z,99.90
2018-02-25T23:24:36.844Z,99.90
2018-02-25T23:27:04.363Z,99.90
2018-02-25T23:29:32.344Z,99.90
2018-02-25T23:31:59.910Z,99.90
2018-02-25T23:34:27.438Z,99.90
2018-02-25T23:36:55.727Z,99.90
2018-02-25T23:39:24.113Z,99.90
2018-02-25T23:41:51.651Z,99.90
2018-02-25T23:44:19.228Z,99.90
2018-02-25T23:46:46.795Z,99.90
2018-02-25T23:49:14.433Z,99.90
2018-02-25T23:51:42.712Z,99.90
2018-02-25T23:54:11.130Z,99.90
2018-02-25T23:56:38.667Z,99.90
2018-02-25T23:59:06.235Z,99.90
